Airfield :
LOGIN :

Register | Disclaimer

   EN    FR    IT 

 










Legend :    VFR   Marginal VFR   IFR   Intensive IFR   Very Intensive IFR
Visi :
Ceiling :
>= 8 km
>= 3000ft
5 to 8 km
1000 to 3000 ft
1500m to 5 km
500 to 1000 ft
800 to 1500m
200 to 500 ft
< 800m
< 200 ft
Symbols :   Thunderstorms  Fog  Heavy snow  Heavy precipitations  Wind > 20 kt
SIGMETs :     Misc.  Thunderstorms  Icing  Turbulence  Mountain Waves  Volcanic Ashes






- Airport Elevation : 135 ft
- IATA code : TLV


LLBG - Ben Gurion

CURRENT METAR :
  • 130150Z 16005KT 9999 FEW016 SCT022 24/21 Q1004 NOSIG

EXPIRED METARs :
  • 130120Z 17004KT 9999 FEW015 SCT020 24/21 Q1004 NOSIG
  • 130050Z 16006KT 9999 FEW017 SCT020 24/21 Q1004 NOSIG
  • 130020Z 15005KT 9999 BKN017 24/21 Q1004 NOSIG
  • 122350Z 16004KT 9999 BKN016 24/21 Q1004 TEMPO BKN015
  • 122320Z 15006KT 9999 BKN016 24/21 Q1004 TEMPO BKN015

TAF TAF LLBG
Valid from the 13 at 00:00 until the 14 at 00:00 UTC


122307Z 1300/1324 16005KT 9999 SCT018
TEMPO 1300/1303 BKN015
BECMG 1306/1308 27010KT FEW025
BECMG 1315/1317 VRB04KT SCT018
TEMPO 1317/1319 20005KT BKN015 TX31/1311Z TN24/1303Z
LLLL FIR / Asia



MET'MAP, your aeronautical weather chart ! - Copyright ORBIFLY December 2007 - Disclaimer

ORBIFLY MET'MAP TEAM :

Programming & Development : Alexandra Zaïnal
Concept & original design : Baudouin d'Aumeries
Assistance for programming : Marc-Olivier Méhu
Technical & hardware support : Manuel Goepfert

Contact : metmap@orbifly.com




SOURCES & CREDITS :

   NOAA